Other Surface Observations
Issued by NWS Los Angeles, CA

Home | Current Version | Previous Version | Text Only | Print | Product List | Glossary On
Versions: 1 2 3 4 5 6 7 8 9 10 11 12 13 14 15 16 17 18 19 20 21 22 23
000
SXUS56 KLOX 242134
OSOLOX

OFFSHORE OIL PLATFORM IRENE WEATHER
NATIONAL WEATHER SERVICE OXNARD CA
230 PM PST THU APR 24 2014

OBSERVATION FROM DRILLING RIG "IRENE"
LOCATION 34 DEG 37 MIN N...120 DEG 44 MIN W...30 MILES SW
OF SANTA MARIA...ANEMOMETER LOCATED 305 FEET ABOVE SEA LEVEL.

SPECI 242120Z 33021KT 10SM SKC 13/12 A2997 RMKS
SEAS 4 TO 6 FEET

$$













































































































































































































USA.gov is the U.S. government's official web portal to all federal, state and local government web resources and services.